createdAt,value
2023-11-25T00:04:09.273Z,0.95
2023-11-25T00:09:30.141Z,0.82
2023-11-25T00:14:51.260Z,1.17
2023-11-25T00:20:12.545Z,1.20
2023-11-25T00:25:33.776Z,1.00
2023-11-25T00:30:54.725Z,1.20
2023-11-25T00:36:15.755Z,1.40
2023-11-25T00:41:36.724Z,1.48
2023-11-25T00:46:57.872Z,1.02
2023-11-25T00:52:18.684Z,1.75
2023-11-25T00:57:39.729Z,1.65
2023-11-25T01:03:00.849Z,1.58
2023-11-25T01:08:21.851Z,1.48
2023-11-25T01:13:43.100Z,1.40
2023-11-25T01:19:04.331Z,1.63
2023-11-25T01:24:25.426Z,1.50
2023-11-25T01:29:46.405Z,1.20
2023-11-25T01:35:07.599Z,1.55
2023-11-25T01:40:28.635Z,1.60
2023-11-25T01:45:49.692Z,1.13
2023-11-25T01:51:10.721Z,1.40
2023-11-25T01:56:33.047Z,1.88
2023-11-25T02:01:55.188Z,1.00
2023-11-25T02:07:16.462Z,1.15
2023-11-25T02:12:37.692Z,1.80
2023-11-25T02:17:58.724Z,1.60
2023-11-25T02:23:21.282Z,2.28
2023-11-25T02:28:42.517Z,2.40
2023-11-25T02:34:03.402Z,1.83
2023-11-25T02:39:24.832Z,1.80
2023-11-25T02:44:45.737Z,2.55
2023-11-25T02:50:07.043Z,2.53
2023-11-25T02:55:27.860Z,1.95
2023-11-25T03:00:48.721Z,1.73
2023-11-25T03:06:09.967Z,1.83
2023-11-25T03:11:31.176Z,1.60
2023-11-25T03:16:55.594Z,2.55
2023-11-25T03:22:17.066Z,1.80
2023-11-25T03:27:38.201Z,1.80
2023-11-25T03:32:59.450Z,1.50
2023-11-25T03:38:20.676Z,1.23
2023-11-25T03:43:41.591Z,1.35
2023-11-25T03:49:02.641Z,1.60
2023-11-25T03:54:23.774Z,1.50
2023-11-25T03:59:44.927Z,2.10
2023-11-25T04:05:06.469Z,1.85
2023-11-25T04:10:27.522Z,1.90
2023-11-25T04:15:48.474Z,1.30
2023-11-25T04:21:09.594Z,1.40
2023-11-25T04:26:30.526Z,1.95
2023-11-25T04:31:51.525Z,2.17
2023-11-25T04:37:12.538Z,1.52
2023-11-25T04:42:33.943Z,1.30
2023-11-25T04:47:55.318Z,0.93
2023-11-25T04:53:16.172Z,1.10
2023-11-25T04:58:37.453Z,1.08
2023-11-25T05:03:58.316Z,1.00
2023-11-25T05:09:19.436Z,0.85
2023-11-25T05:14:41.836Z,1.33
2023-11-25T05:20:03.200Z,1.50
2023-11-25T05:25:24.423Z,1.17
2023-11-25T05:30:45.321Z,1.95
2023-11-25T05:36:06.807Z,2.28
2023-11-25T05:41:28.488Z,0.98
2023-11-25T05:46:49.780Z,0.93
2023-11-25T05:52:10.872Z,0.73
2023-11-25T05:57:31.894Z,0.88
2023-11-25T06:02:53.158Z,2.17
2023-11-25T06:08:14.044Z,0.93
2023-11-25T06:13:35.334Z,1.20
2023-11-25T06:18:56.428Z,0.77
2023-11-25T06:24:18.550Z,1.30
2023-11-25T06:29:39.427Z,1.27
2023-11-25T06:35:00.714Z,0.90
2023-11-25T06:40:21.894Z,1.17
2023-11-25T06:45:43.388Z,1.27
2023-11-25T06:51:05.245Z,0.95
2023-11-25T06:56:26.675Z,0.90
2023-11-25T07:01:47.907Z,0.82
2023-11-25T07:07:08.835Z,1.08
2023-11-25T07:12:30.211Z,1.02
2023-11-25T07:17:51.605Z,1.23
2023-11-25T07:23:12.571Z,1.00
2023-11-25T07:28:34.518Z,1.83
2023-11-25T07:33:55.605Z,1.45
2023-11-25T07:39:16.866Z,1.05
2023-11-25T07:44:38.150Z,1.27
2023-11-25T07:49:59.201Z,0.70
2023-11-25T07:55:20.569Z,0.95
2023-11-25T08:00:41.660Z,1.23
2023-11-25T08:06:02.837Z,0.80
2023-11-25T08:11:28.275Z,0.82
2023-11-25T08:16:49.413Z,1.63
2023-11-25T08:22:10.367Z,1.52
2023-11-25T08:31:38.204Z,1.23
2023-11-25T08:36:59.493Z,1.08
2023-11-25T08:42:21.547Z,1.67
2023-11-25T08:47:44.132Z,1.00
2023-11-25T08:53:05.468Z,1.75
2023-11-25T08:58:28.048Z,1.58
2023-11-25T09:03:49.439Z,1.50
2023-11-25T09:09:10.840Z,1.83
2023-11-25T09:14:32.194Z,1.67
2023-11-25T09:19:53.545Z,2.20
2023-11-25T09:25:15.913Z,1.85
2023-11-25T09:30:37.174Z,1.48
2023-11-25T09:35:58.639Z,1.30
2023-11-25T09:41:20.102Z,1.15
2023-11-25T09:46:41.553Z,1.33
2023-11-25T09:52:04.791Z,0.93
2023-11-25T09:57:27.908Z,1.13
2023-11-25T10:02:54.037Z,1.30
2023-11-25T10:08:15.639Z,1.20
2023-11-25T10:13:39.415Z,0.52
2023-11-25T10:19:01.763Z,2.05
2023-11-25T10:24:23.054Z,0.77
2023-11-25T10:29:44.592Z,0.50
2023-11-25T10:35:06.774Z,0.60
2023-11-25T10:40:28.485Z,0.80
2023-11-25T10:45:49.990Z,0.77
2023-11-25T10:51:12.330Z,0.60
2023-11-25T10:56:36.246Z,0.80
2023-11-25T11:02:02.758Z,0.70
2023-11-25T11:11:01.369Z,0.80
2023-11-25T11:16:59.438Z,1.63
2023-11-25T11:22:23.144Z,0.80
2023-11-25T11:28:12.451Z,0.70
2023-11-25T11:33:34.034Z,0.70
2023-11-25T11:38:55.522Z,0.82
2023-11-25T11:44:16.732Z,0.80
2023-11-25T11:49:38.120Z,1.05
2023-11-25T11:55:41.071Z,1.30
2023-11-25T12:01:02.614Z,1.13
2023-11-25T12:06:24.258Z,1.45
2023-11-25T12:25:42.353Z,1.05
2023-11-25T12:31:03.894Z,1.20
2023-11-25T12:36:25.167Z,0.77
2023-11-25T12:41:46.387Z,0.73
2023-11-25T12:47:07.830Z,0.93
2023-11-25T12:52:29.639Z,1.25
2023-11-25T12:57:50.864Z,1.05
2023-11-25T13:06:06.168Z,0.90
2023-11-25T13:11:27.328Z,0.50
2023-11-25T13:23:19.219Z,0.82
2023-11-25T13:28:40.518Z,1.00
2023-11-25T13:34:01.736Z,1.10
2023-11-25T13:39:22.943Z,0.95
2023-11-25T13:44:44.315Z,0.70
2023-11-25T13:50:06.610Z,0.90
2023-11-25T13:55:29.332Z,2.28
2023-11-25T14:00:50.599Z,1.05
2023-11-25T14:06:12.160Z,1.52
2023-11-25T14:11:33.356Z,1.02
2023-11-25T14:16:54.900Z,1.05
2023-11-25T14:22:16.684Z,1.30
2023-11-25T14:27:38.125Z,0.85
2023-11-25T14:32:59.483Z,0.60
2023-11-25T14:38:21.011Z,0.80
2023-11-25T14:43:42.605Z,1.30
2023-11-25T14:49:04.108Z,1.45
2023-11-25T14:54:25.339Z,1.33
2023-11-25T14:59:46.995Z,0.82
2023-11-25T15:05:08.656Z,0.90
2023-11-25T15:10:29.856Z,0.70
2023-11-25T15:15:51.844Z,0.80
2023-11-25T15:21:18.869Z,0.77
2023-11-25T15:26:45.090Z,1.10
2023-11-25T15:32:07.105Z,0.70
2023-11-25T15:37:28.773Z,0.95
2023-11-25T15:42:50.455Z,1.15
2023-11-25T15:48:11.999Z,1.20
2023-11-25T15:53:33.794Z,1.02
2023-11-25T15:58:54.914Z,1.00
2023-11-25T16:04:16.120Z,2.10
2023-11-25T16:09:37.334Z,1.50
2023-11-25T16:14:58.652Z,1.10
2023-11-25T16:20:20.037Z,1.55
2023-11-25T16:25:41.549Z,1.20
2023-11-25T16:31:03.239Z,1.00
2023-11-25T16:36:24.695Z,1.40
2023-11-25T16:41:46.807Z,1.25
2023-11-25T16:47:08.082Z,1.70
2023-11-25T16:52:29.152Z,2.40
2023-11-25T16:57:50.503Z,1.75
2023-11-25T17:03:12.227Z,2.00
2023-11-25T17:08:34.019Z,2.85
2023-11-25T17:13:55.526Z,1.15
2023-11-25T17:19:17.185Z,0.73
2023-11-25T17:24:38.924Z,1.88
2023-11-25T17:30:00.414Z,0.93
2023-11-25T17:35:21.806Z,1.52
2023-11-25T17:40:43.276Z,0.85
2023-11-25T17:46:05.326Z,1.00
2023-11-25T17:51:27.025Z,1.65
2023-11-25T17:56:48.670Z,1.10
2023-11-25T18:02:10.370Z,1.52
2023-11-25T18:07:31.407Z,0.90
2023-11-25T18:12:52.730Z,1.05
2023-11-25T18:18:14.306Z,0.90
2023-11-25T18:23:35.697Z,0.82
2023-11-25T18:28:56.948Z,0.95
2023-11-25T18:34:18.517Z,1.42
2023-11-25T18:39:39.979Z,1.40
2023-11-25T18:45:01.240Z,1.30
2023-11-25T18:50:22.533Z,1.30
2023-11-25T18:55:44.046Z,1.27
2023-11-25T19:01:05.796Z,1.40
2023-11-25T19:06:27.779Z,2.03
2023-11-25T19:11:49.249Z,1.20
2023-11-25T19:17:10.734Z,1.50
2023-11-25T19:22:33.051Z,1.58
2023-11-25T19:27:54.488Z,1.92
2023-11-25T19:33:15.823Z,1.35
2023-11-25T19:38:37.378Z,1.58
2023-11-25T19:43:58.956Z,1.48
2023-11-25T19:49:20.506Z,1.60
2023-11-25T19:54:41.783Z,2.55
2023-11-25T20:00:03.465Z,2.22
2023-11-25T20:05:32.882Z,1.83
2023-11-25T20:10:54.513Z,2.65
2023-11-25T20:16:16.358Z,1.80
2023-11-25T20:21:37.732Z,1.90
2023-11-25T20:26:59.409Z,1.95
2023-11-25T20:32:20.584Z,2.00
2023-11-25T20:37:41.917Z,2.05
2023-11-25T20:43:03.352Z,2.20
2023-11-25T20:48:24.959Z,2.10
2023-11-25T20:53:46.611Z,2.13
2023-11-25T20:59:08.281Z,2.03
2023-11-25T21:04:30.325Z,2.55
2023-11-25T21:09:51.690Z,2.22
2023-11-25T21:15:13.093Z,2.70
2023-11-25T21:20:34.142Z,1.90
2023-11-25T21:25:55.982Z,1.95
2023-11-25T21:31:17.808Z,2.00
2023-11-25T21:36:39.187Z,2.10
2023-11-25T21:42:00.878Z,2.50
2023-11-25T21:47:22.205Z,3.10
2023-11-25T21:52:43.627Z,3.30
2023-11-25T21:58:04.993Z,3.63
2023-11-25T22:03:26.461Z,4.05
2023-11-25T22:08:48.104Z,3.55
2023-11-25T22:14:09.356Z,3.28
2023-11-25T22:19:30.796Z,4.03
2023-11-25T22:24:51.991Z,4.18
2023-11-25T22:30:13.670Z,4.05
2023-11-25T22:35:47.376Z,3.92
2023-11-25T22:41:12.012Z,3.97
2023-11-25T22:46:33.650Z,3.70
2023-11-25T22:51:54.805Z,3.60
2023-11-25T22:57:16.131Z,3.08
2023-11-25T23:02:37.628Z,3.40
2023-11-25T23:07:58.840Z,3.13
2023-11-25T23:13:21.140Z,3.10
2023-11-25T23:18:43.237Z,2.85
2023-11-25T23:24:04.742Z,2.83
2023-11-25T23:29:26.098Z,4.10
2023-11-25T23:34:47.446Z,3.53
2023-11-25T23:40:09.443Z,3.75
2023-11-25T23:45:30.862Z,3.60
2023-11-25T23:50:52.227Z,3.33
2023-11-25T23:56:13.856Z,3.58
